Time;durP1;ratioP1;P1;durP2;ratioP2;P2;SDS_P1;SDS_P2;PMS_P1;PMS_P2;Temp;Humidity;BMP_temperature;BMP_pressure;BME280_temperature;BME280_humidity;BME280_pressure;Samples;Min_cycle;Max_cycle;Signal;HPM_P1;HPM_P2
2022/11/25 00:00:50;;;;;;;10.20;8.43;;;;;;;6.71;100.00;100201.84;5005660;28;20050;-77
2022/11/25 00:03:16;;;;;;;14.68;9.13;;;;;;;6.88;100.00;100212.50;4990612;28;20065;-77
2022/11/25 00:05:42;;;;;;;11.43;8.20;;;;;;;6.14;100.00;100168.97;4990304;28;20145;-78
2022/11/25 00:08:07;;;;;;;10.93;7.40;;;;;;;6.27;100.00;100193.47;5022699;28;20034;-77
2022/11/25 00:10:33;;;;;;;10.25;6.25;;;;;;;5.61;100.00;100116.94;5028132;28;20112;-77
2022/11/25 00:12:58;;;;;;;9.82;7.13;;;;;;;5.41;100.00;100108.84;5030095;28;20033;-78
2022/11/25 00:15:24;;;;;;;12.07;9.02;;;;;;;5.98;100.00;100222.56;5023213;28;20518;-78
2022/11/25 00:17:50;;;;;;;13.85;8.63;;;;;;;6.12;100.00;100248.84;4988997;28;20069;-77
2022/11/25 00:20:18;;;;;;;10.40;6.80;;;;;;;5.86;100.00;100238.84;5004281;28;20050;-76
2022/11/25 00:22:43;;;;;;;11.57;8.18;;;;;;;5.61;100.00;100239.28;5009339;28;20044;-76
2022/11/25 00:25:09;;;;;;;10.98;8.30;;;;;;;4.86;100.00;100111.38;5008907;28;20026;-77
2022/11/25 00:27:34;;;;;;;19.00;9.10;;;;;;;5.65;100.00;100254.09;5009817;28;20386;-79
2022/11/25 00:30:00;;;;;;;19.75;10.98;;;;;;;5.53;100.00;100243.50;5007775;28;20045;-78
2022/11/25 00:32:25;;;;;;;16.83;10.80;;;;;;;4.62;100.00;100104.88;5009203;28;20094;-79
2022/11/25 00:34:51;;;;;;;19.60;11.00;;;;;;;5.61;100.00;100252.28;5018695;28;20037;-77
2022/11/25 00:37:16;;;;;;;13.02;10.45;;;;;;;4.68;100.00;100106.69;5029006;28;20037;-77
2022/11/25 00:39:42;;;;;;;15.57;11.05;;;;;;;5.41;100.00;100258.03;5029405;28;20029;-76
2022/11/25 00:44:53;;;;;;;19.38;11.68;;;;;;;5.11;100.00;100215.84;5020268;28;20714;-77
2022/11/25 00:47:19;;;;;;;17.98;13.30;;;;;;;4.89;100.00;100178.13;4990459;28;20589;-79
2022/11/25 00:49:50;;;;;;;18.25;14.13;;;;;;;4.74;100.00;100153.59;5021145;28;20045;-77
2022/11/25 00:52:19;;;;;;;19.95;13.88;;;;;;;5.39;100.00;100236.31;5025672;28;20542;-77
2022/11/25 00:54:48;;;;;;;23.33;14.45;;;;;;;5.37;100.00;100247.53;5009110;28;20029;-77
2022/11/25 00:57:15;;;;;;;20.80;13.65;;;;;;;5.56;100.00;100262.63;5008681;28;20050;-78
2022/11/25 00:59:41;;;;;;;19.90;13.60;;;;;;;5.08;100.00;100240.94;5008425;28;20573;-78
2022/11/25 01:02:07;;;;;;;20.23;16.00;;;;;;;5.36;100.00;100287.38;5001762;28;20065;-79
2022/11/25 01:04:33;;;;;;;24.48;15.90;;;;;;;5.34;100.00;100286.47;4988884;28;20479;-76
2022/11/25 01:06:59;;;;;;;31.35;18.90;;;;;;;4.60;100.00;100161.13;5002827;28;20496;-77
2022/11/25 01:09:26;;;;;;;31.23;18.00;;;;;;;4.90;100.00;100188.56;5026635;28;20045;-77
2022/11/25 01:11:52;;;;;;;22.38;15.30;;;;;;;5.50;100.00;100247.78;5010033;28;20041;-78
2022/11/25 01:14:19;;;;;;;30.60;20.25;;;;;;;5.06;100.00;100180.22;5020772;28;20046;-78
2022/11/25 01:16:44;;;;;;;36.95;21.63;;;;;;;5.47;100.00;100258.13;5001934;28;20080;-77
2022/11/25 01:19:11;;;;;;;45.47;24.63;;;;;;;5.53;100.00;100296.41;5000118;28;20125;-77
2022/11/25 01:21:37;;;;;;;43.28;23.42;;;;;;;4.54;100.00;100163.63;4994239;28;20038;-77
2022/11/25 01:24:03;;;;;;;53.13;25.73;;;;;;;5.63;100.00;100281.84;4987901;28;20046;-75
2022/11/25 01:26:29;;;;;;;38.33;22.20;;;;;;;5.92;100.00;100305.75;4984541;28;20072;-75
2022/11/25 01:28:58;;;;;;;50.55;24.20;;;;;;;5.47;100.00;100255.53;5012397;28;20128;-76
2022/11/25 01:31:26;;;;;;;38.17;20.83;;;;;;;5.11;100.00;100175.09;4996324;28;20791;-77
2022/11/25 01:33:57;;;;;;;40.85;19.95;;;;;;;5.39;100.00;100201.63;4996956;28;20042;-78
2022/11/25 01:36:23;;;;;;;42.80;23.70;;;;;;;5.32;100.00;100192.81;5037577;28;20041;-76
2022/11/25 01:38:54;;;;;;;45.53;22.58;;;;;;;5.05;100.00;100155.03;5020185;28;20449;-79
2022/11/25 01:41:21;;;;;;;44.53;21.52;;;;;;;5.29;100.00;100200.56;4990578;28;20038;-76
2022/11/25 01:44:08;;;;;;;45.28;21.92;;;;;;;5.57;100.00;100253.09;5007969;28;20141;-78
2022/11/25 01:46:53;;;;;;;51.72;21.13;;;;;;;5.84;100.00;100318.66;4990120;28;20494;-79
2022/11/25 01:49:22;;;;;;;43.47;21.77;;;;;;;5.35;100.00;100192.88;4988604;28;20045;-78
2022/11/25 01:52:04;;;;;;;49.45;25.30;;;;;;;5.82;100.00;100291.72;5005290;28;20037;-76
2022/11/25 01:54:36;;;;;;;41.08;22.90;;;;;;;5.31;100.00;100203.19;4990266;28;20490;-77
2022/11/25 01:57:07;;;;;;;68.55;26.20;;;;;;;5.16;100.00;100178.66;4999087;28;20050;-77
2022/11/25 01:59:38;;;;;;;44.20;22.85;;;;;;;5.89;100.00;100287.50;4970589;28;20060;-77
2022/11/25 02:02:04;;;;;;;53.13;21.83;;;;;;;5.06;100.00;100159.41;4970205;28;20065;-79
2022/11/25 02:04:36;;;;;;;45.08;21.45;;;;;;;6.05;100.00;100305.16;4988102;28;20042;-81
2022/11/25 02:07:08;;;;;;;60.00;25.83;;;;;;;5.93;100.00;100318.81;4996552;28;20391;-76
2022/11/25 02:09:38;;;;;;;45.25;21.45;;;;;;;5.67;100.00;100300.13;4993006;28;20050;-76
2022/11/25 02:12:03;;;;;;;41.65;23.45;;;;;;;5.69;100.00;100289.75;4987882;28;20042;-78
2022/11/25 02:14:29;;;;;;;53.80;27.75;;;;;;;5.16;100.00;100196.88;4987930;28;20050;-78
2022/11/25 02:16:54;;;;;;;44.40;24.88;;;;;;;5.13;100.00;100190.72;4987978;28;20804;-78
2022/11/25 02:19:27;;;;;;;39.80;21.38;;;;;;;5.17;100.00;100202.94;4987936;28;20096;-77
2022/11/25 02:22:01;;;;;;;42.63;23.13;;;;;;;5.44;100.00;100325.72;4988364;28;20099;-75
2022/11/25 02:24:52;;;;;;;60.53;27.13;;;;;;;5.72;100.00;100334.06;4987819;28;20116;-79
2022/11/25 02:27:18;;;;;;;51.55;25.35;;;;;;;5.30;100.00;100243.94;4987147;28;20225;-77
2022/11/25 02:29:43;;;;;;;55.22;25.48;;;;;;;5.08;100.00;100204.53;5009718;28;20139;-76
2022/11/25 02:32:09;;;;;;;52.63;22.05;;;;;;;5.91;100.00;100356.97;5007158;28;20100;-78
2022/11/25 02:34:34;;;;;;;45.60;23.42;;;;;;;5.79;100.00;100332.44;5007167;28;20513;-77
2022/11/25 02:37:00;;;;;;;42.58;21.00;;;;;;;4.73;100.00;100211.66;5007352;28;20037;-76
2022/11/25 02:39:27;;;;;;;45.45;22.55;;;;;;;5.66;100.00;100375.59;5006552;28;20049;-78
2022/11/25 02:41:57;;;;;;;37.28;19.70;;;;;;;4.43;100.00;100191.09;5008915;28;20061;-78
2022/11/25 02:44:23;;;;;;;37.70;19.85;;;;;;;5.76;100.00;100385.34;5012260;28;20060;-76
2022/11/25 02:46:49;;;;;;;41.53;21.45;;;;;;;4.93;100.00;100253.63;5029109;28;20513;-76
2022/11/25 02:49:15;;;;;;;46.67;22.30;;;;;;;5.32;100.00;100283.00;5020276;28;20033;-78
2022/11/25 02:51:43;;;;;;;53.50;22.70;;;;;;;5.51;100.00;100308.50;5024345;28;20048;-77
2022/11/25 02:54:10;;;;;;;33.55;17.25;;;;;;;4.85;100.00;100237.00;5013368;28;20525;-76
2022/11/25 02:56:36;;;;;;;38.65;21.88;;;;;;;5.59;100.00;100334.69;5000527;28;20046;-77
2022/11/25 02:59:03;;;;;;;41.65;21.13;;;;;;;5.74;100.00;100389.66;5009759;28;20096;-76
2022/11/25 03:01:30;;;;;;;44.85;21.85;;;;;;;5.00;100.00;100242.50;5011156;28;20069;-78
2022/11/25 03:03:55;;;;;;;42.05;22.17;;;;;;;5.68;100.00;100343.53;5011807;28;20045;-77
2022/11/25 03:06:21;;;;;;;39.47;18.70;;;;;;;5.54;100.00;100376.22;5010675;28;20042;-77
2022/11/25 03:08:46;;;;;;;43.30;20.13;;;;;;;4.53;100.00;100252.78;5030446;28;20053;-77
2022/11/25 03:11:12;;;;;;;48.08;21.92;;;;;;;4.90;100.00;100248.38;5030224;28;20119;-75
2022/11/25 03:13:37;;;;;;;40.60;19.65;;;;;;;5.84;100.00;100390.69;5024220;28;20056;-76
2022/11/25 03:16:03;;;;;;;48.05;22.02;;;;;;;5.74;100.00;100361.00;4990603;28;20032;-77
2022/11/25 03:18:28;;;;;;;40.67;20.90;;;;;;;5.60;100.00;100345.13;5010170;28;20046;-80
2022/11/25 03:20:54;;;;;;;46.05;22.70;;;;;;;4.95;100.00;100306.53;5010887;28;20462;-77
2022/11/25 03:23:21;;;;;;;37.95;20.13;;;;;;;5.48;100.00;100361.38;4994682;28;20114;-77
2022/11/25 03:25:46;;;;;;;45.33;21.80;;;;;;;5.66;100.00;100409.44;4999603;28;20069;-78
2022/11/25 03:28:12;;;;;;;45.25;23.30;;;;;;;5.32;100.00;100309.03;4996287;28;20462;-78
2022/11/25 03:30:38;;;;;;;46.60;21.23;;;;;;;5.78;100.00;100373.22;5010326;28;20038;-79
2022/11/25 03:33:04;;;;;;;51.67;22.50;;;;;;;4.81;100.00;100274.19;4988469;28;20414;-78
2022/11/25 03:35:29;;;;;;;45.40;23.70;;;;;;;5.31;100.00;100403.50;5008618;28;20104;-77
2022/11/25 03:37:54;;;;;;;44.50;21.73;;;;;;;5.22;100.00;100410.28;4995593;28;20133;-78
2022/11/25 03:40:20;;;;;;;41.72;23.23;;;;;;;5.10;100.00;100299.91;4990946;28;20053;-79
2022/11/25 03:42:46;;;;;;;37.10;20.52;;;;;;;5.16;100.00;100410.13;5001645;28;20546;-80
2022/11/25 03:45:13;;;;;;;36.70;22.35;;;;;;;4.88;100.00;100270.84;5003452;28;20064;-78
2022/11/25 03:47:43;;;;;;;45.03;20.95;;;;;;;5.86;100.00;100415.91;4996009;28;20054;-79
2022/11/25 03:50:11;;;;;;;40.10;20.38;;;;;;;5.83;100.00;100415.84;5000303;28;20062;-79
2022/11/25 03:52:37;;;;;;;37.85;18.05;;;;;;;5.20;100.00;100279.31;5013730;28;20042;-78
2022/11/25 03:55:04;;;;;;;39.25;18.65;;;;;;;5.94;100.00;100421.28;5010321;28;20057;-78
2022/11/25 03:57:30;;;;;;;37.40;18.35;;;;;;;5.36;100.00;100326.41;4997394;28;20053;-79
2022/11/25 03:59:56;;;;;;;42.65;20.20;;;;;;;5.23;100.00;100307.09;5006795;28;20042;-76
2022/11/25 04:02:21;;;;;;;43.30;21.33;;;;;;;5.39;100.00;100410.63;5004254;28;20525;-76
2022/11/25 04:04:47;;;;;;;35.88;18.70;;;;;;;5.78;100.00;100422.69;5009387;28;20397;-78
2022/11/25 04:07:12;;;;;;;45.65;21.00;;;;;;;6.01;100.00;100436.16;5008747;28;20121;-75
2022/11/25 04:09:37;;;;;;;41.83;20.85;;;;;;;5.29;100.00;100307.19;5008627;28;20044;-77
2022/11/25 04:14:47;;;;;;;41.03;22.40;;;;;;;5.46;100.00;100324.03;5003941;28;20065;-77
2022/11/25 04:17:13;;;;;;;36.17;19.48;;;;;;;4.89;100.00;100319.41;4994280;28;20046;-76
2022/11/25 04:19:38;;;;;;;33.90;20.80;;;;;;;5.55;100.00;100404.03;5018714;28;20592;-77
2022/11/25 04:22:03;;;;;;;27.05;15.68;;;;;;;5.39;100.00;100444.47;5029729;28;20026;-74
2022/11/25 04:24:29;;;;;;;29.45;17.52;;;;;;;5.22;100.00;100444.09;5028668;28;20091;-77
2022/11/25 04:26:54;;;;;;;34.55;19.50;;;;;;;4.81;100.00;100308.84;5009018;28;20134;-77
2022/11/25 04:29:20;;;;;;;38.20;20.50;;;;;;;5.27;100.00;100341.00;5021394;28;20565;-77
2022/11/25 04:31:45;;;;;;;39.40;21.30;;;;;;;5.98;100.00;100462.16;5018617;28;20049;-77
2022/11/25 04:34:11;;;;;;;35.72;21.38;;;;;;;5.66;100.00;100396.41;5029155;28;20032;-76
2022/11/25 04:36:36;;;;;;;27.38;16.33;;;;;;;5.31;100.00;100357.53;5029467;28;20025;-75
2022/11/25 04:39:03;;;;;;;35.75;18.33;;;;;;;5.29;100.00;100333.22;5031350;28;20103;-76
2022/11/25 04:41:29;;;;;;;35.97;18.88;;;;;;;6.07;100.00;100459.75;5039360;28;20057;-78
2022/11/25 04:43:54;;;;;;;29.38;15.63;;;;;;;5.93;100.00;100422.13;5014127;28;20050;-77
2022/11/25 04:46:33;;;;;;;29.98;17.10;;;;;;;6.02;100.00;100456.19;5006803;28;20589;-75
2022/11/25 04:48:58;;;;;;;26.17;18.38;;;;;;;5.38;100.00;100436.59;5011298;28;20025;-76
2022/11/25 04:51:23;;;;;;;31.35;18.35;;;;;;;5.10;100.00;100430.78;5018644;28;20416;-75
2022/11/25 04:53:49;;;;;;;31.05;19.85;;;;;;;5.11;100.00;100340.69;5013046;28;20068;-75
2022/11/25 04:56:19;;;;;;;28.38;18.35;;;;;;;4.81;100.00;100368.63;5006861;28;20072;-79
2022/11/25 05:01:45;;;;;;;32.88;20.25;;;;;;;5.69;100.00;100439.00;4984800;28;20411;-78
2022/11/25 05:04:11;;;;;;;30.73;19.80;;;;;;;5.91;100.00;100475.88;4986874;28;20050;-79
2022/11/25 05:06:37;;;;;;;33.22;19.05;;;;;;;6.01;100.00;100470.03;4997634;28;20036;-76
2022/11/25 05:09:03;;;;;;;30.23;19.20;;;;;;;6.05;100.00;100465.78;5026265;28;20404;-77
2022/11/25 05:11:29;;;;;;;28.55;16.67;;;;;;;6.22;100.00;100494.75;5028043;28;20057;-76
2022/11/25 05:13:54;;;;;;;30.95;16.80;;;;;;;5.92;100.00;100501.06;5025119;28;20053;-77
2022/11/25 05:16:19;;;;;;;33.67;19.00;;;;;;;5.54;100.00;100493.34;4998593;28;20139;-78
2022/11/25 05:18:45;;;;;;;25.75;16.17;;;;;;;4.68;100.00;100417.69;4997082;28;20037;-77
2022/11/25 05:21:10;;;;;;;26.08;16.52;;;;;;;5.55;100.00;100489.91;5007291;28;20042;-81
2022/11/25 05:23:36;;;;;;;23.25;17.05;;;;;;;5.29;100.00;100515.31;4987258;28;20089;-79
2022/11/25 05:26:03;;;;;;;29.35;17.23;;;;;;;4.67;100.00;100402.94;4974657;28;20125;-76
2022/11/25 05:28:31;;;;;;;29.98;16.38;;;;;;;5.54;100.00;100508.09;4983294;28;20485;-77
2022/11/25 05:30:57;;;;;;;29.58;17.95;;;;;;;5.40;100.00;100497.38;5006516;28;20065;-77
2022/11/25 05:33:24;;;;;;;32.53;18.58;;;;;;;5.13;100.00;100482.00;4974154;28;20042;-76
2022/11/25 05:36:01;;;;;;;34.28;19.17;;;;;;;5.61;100.00;100530.78;5005900;28;20053;-78
2022/11/25 05:38:27;;;;;;;29.55;18.38;;;;;;;4.68;100.00;100342.31;5000353;28;20081;-80
2022/11/25 05:40:53;;;;;;;37.08;20.77;;;;;;;5.11;100.00;100403.97;4996688;28;20053;-77
2022/11/25 05:43:19;;;;;;;35.13;21.00;;;;;;;5.44;100.00;100502.69;5006746;28;20052;-79
2022/11/25 05:45:44;;;;;;;31.65;19.65;;;;;;;5.47;100.00;100520.94;5005927;28;20423;-77
2022/11/25 05:48:10;;;;;;;27.38;17.92;;;;;;;5.68;100.00;100546.56;5005725;28;20332;-79
2022/11/25 05:50:36;;;;;;;27.13;16.98;;;;;;;5.19;100.00;100450.94;4990542;28;20044;-76
2022/11/25 05:53:02;;;;;;;36.38;16.77;;;;;;;5.34;100.00;100464.31;5016284;28;20152;-78
2022/11/25 05:55:27;;;;;;;31.23;17.40;;;;;;;4.73;100.00;100405.69;5004812;28;20036;-78
2022/11/25 05:57:53;;;;;;;26.65;15.85;;;;;;;5.26;100.00;100460.63;5007153;28;20026;-78
2022/11/25 06:00:19;;;;;;;24.25;15.27;;;;;;;5.32;100.00;100531.03;4999211;28;20065;-77
2022/11/25 06:02:49;;;;;;;20.85;12.88;;;;;;;4.31;100.00;100438.47;5002822;28;20054;-79
2022/11/25 06:05:14;;;;;;;26.50;14.45;;;;;;;4.10;100.00;100437.91;5006774;28;20124;-78
2022/11/25 06:07:40;;;;;;;25.88;13.40;;;;;;;4.72;100.00;100474.09;5019380;28;20548;-77
2022/11/25 06:10:06;;;;;;;33.20;13.38;;;;;;;5.19;100.00;100511.63;5010871;28;20161;-77
2022/11/25 06:12:31;;;;;;;23.80;13.45;;;;;;;5.80;100.00;100594.56;4988326;28;20228;-76
2022/11/25 06:14:57;;;;;;;23.35;12.18;;;;;;;5.70;100.00;100550.09;4986560;28;20050;-81
2022/11/25 06:17:22;;;;;;;25.10;13.75;;;;;;;5.34;100.00;100498.13;4987612;28;20031;-79
2022/11/25 06:19:48;;;;;;;25.42;12.20;;;;;;;5.44;100.00;100517.41;4991831;28;20038;-77
2022/11/25 06:22:13;;;;;;;22.70;12.77;;;;;;;5.16;100.00;100458.69;5004869;28;20034;-77
2022/11/25 06:24:39;;;;;;;16.13;11.85;;;;;;;5.92;100.00;100603.53;5005604;28;20462;-78
2022/11/25 06:27:04;;;;;;;23.02;12.18;;;;;;;5.70;100.00;100567.44;5001321;28;20049;-77
2022/11/25 06:29:30;;;;;;;24.85;13.98;;;;;;;5.76;100.00;100570.19;5015552;28;20080;-80
2022/11/25 06:31:55;;;;;;;17.48;11.77;;;;;;;5.54;100.00;100536.72;5004745;28;20807;-80
2022/11/25 06:34:21;;;;;;;22.20;12.65;;;;;;;4.70;100.00;100470.59;4988901;28;20469;-77
2022/11/25 06:36:48;;;;;;;19.63;13.32;;;;;;;4.84;100.00;100443.19;4993871;28;20030;-79
2022/11/25 06:39:14;;;;;;;16.58;12.25;;;;;;;5.72;100.00;100608.28;4994685;28;20074;-78
2022/11/25 06:41:39;;;;;;;20.83;11.70;;;;;;;5.88;100.00;100616.47;4998231;28;20138;-79
2022/11/25 06:44:05;;;;;;;22.67;13.50;;;;;;;5.72;100.00;100610.88;4990032;28;20051;-78
2022/11/25 06:46:30;;;;;;;20.33;13.00;;;;;;;5.48;100.00;100569.56;4990843;28;20045;-77
2022/11/25 06:48:59;;;;;;;25.05;12.02;;;;;;;5.59;100.00;100581.94;4991615;28;20037;-79
2022/11/25 06:51:24;;;;;;;21.55;12.23;;;;;;;5.46;100.00;100609.41;4996291;28;20154;-77
2022/11/25 06:53:50;;;;;;;20.63;11.85;;;;;;;5.40;100.00;100571.09;4989307;28;20593;-77
2022/11/25 06:56:19;;;;;;;16.77;11.27;;;;;;;5.56;100.00;100621.78;4998108;28;20053;-75
2022/11/25 06:58:45;;;;;;;20.88;12.45;;;;;;;5.22;100.00;100605.38;5004185;28;20494;-80
2022/11/25 07:01:15;;;;;;;27.65;14.27;;;;;;;5.59;100.00;100636.59;5003532;28;20050;-77
2022/11/25 07:03:42;;;;;;;19.95;13.15;;;;;;;5.28;100.00;100587.28;5006459;28;20030;-75
2022/11/25 07:06:08;;;;;;;27.63;14.20;;;;;;;5.63;100.00;100631.50;4995032;28;20749;-77
2022/11/25 07:08:34;;;;;;;23.75;13.55;;;;;;;4.56;100.00;100502.28;5025393;28;20087;-76
2022/11/25 07:11:04;;;;;;;24.33;15.60;;;;;;;5.53;100.00;100626.94;5008491;28;20057;-78
2022/11/25 07:13:30;;;;;;;22.10;13.27;;;;;;;5.91;100.00;100617.38;5004337;28;20042;-78
2022/11/25 07:16:00;;;;;;;25.58;16.95;;;;;;;5.03;100.00;100454.91;4983834;28;20038;-78
2022/11/25 07:18:29;;;;;;;23.73;14.60;;;;;;;5.21;100.00;100481.34;4987276;28;20057;-76
2022/11/25 07:20:54;;;;;;;28.33;15.30;;;;;;;5.68;100.00;100619.47;5004898;28;20048;-79
2022/11/25 07:23:20;;;;;;;28.83;17.40;;;;;;;4.80;100.00;100525.44;5001136;28;20034;-77
2022/11/25 07:25:45;;;;;;;23.00;14.00;;;;;;;4.99;100.00;100573.59;5002007;28;20065;-76
2022/11/25 07:28:10;;;;;;;23.10;13.18;;;;;;;4.33;100.00;100517.31;5001886;28;20132;-75
2022/11/25 07:30:36;;;;;;;22.15;14.07;;;;;;;5.78;100.00;100643.09;4995837;28;20050;-77
2022/11/25 07:33:01;;;;;;;20.33;12.85;;;;;;;4.88;100.00;100551.63;5009709;28;20405;-77
2022/11/25 07:35:27;;;;;;;24.35;15.60;;;;;;;5.21;100.00;100646.94;5007667;28;20734;-76
2022/11/25 07:37:52;;;;;;;35.30;17.48;;;;;;;4.63;100.00;100521.53;5009352;28;20481;-76
2022/11/25 07:40:18;;;;;;;27.45;16.88;;;;;;;5.32;100.00;100655.91;5026281;28;20034;-77
2022/11/25 07:42:43;;;;;;;26.42;14.60;;;;;;;4.60;100.00;100441.78;5021518;28;20133;-77
2022/11/25 07:45:09;;;;;;;29.33;15.43;;;;;;;5.17;100.00;100509.84;4992908;28;20556;-78
2022/11/25 07:47:34;;;;;;;47.50;16.85;;;;;;;5.91;100.00;100616.50;4990054;28;20480;-77
2022/11/25 07:49:59;;;;;;;21.35;14.10;;;;;;;6.17;100.00;100673.56;4997972;28;20673;-76
2022/11/25 07:52:25;;;;;;;31.92;15.48;;;;;;;6.18;100.00;100675.28;5020739;28;20049;-79
2022/11/25 07:54:52;;;;;;;26.02;15.00;;;;;;;5.03;100.00;100556.31;5007065;28;20038;-77
2022/11/25 07:57:17;;;;;;;24.02;15.93;;;;;;;5.62;100.00;100675.72;4992538;28;20716;-74
2022/11/25 07:59:43;;;;;;;23.35;14.95;;;;;;;5.06;100.00;100619.72;5004321;28;20058;-74
2022/11/25 08:02:09;;;;;;;31.75;15.13;;;;;;;5.39;100.00;100638.75;5004998;28;20046;-76
2022/11/25 08:04:36;;;;;;;29.88;15.10;;;;;;;5.78;100.00;100684.78;5009209;28;20046;-74
2022/11/25 08:07:01;;;;;;;41.10;16.33;;;;;;;6.25;100.00;100695.44;5020108;28;20497;-75
2022/11/25 08:09:27;;;;;;;22.60;14.60;;;;;;;5.68;100.00;100577.81;4989336;28;20060;-74
2022/11/25 08:11:52;;;;;;;31.83;18.50;;;;;;;5.88;100.00;100629.47;5007426;28;20042;-74
2022/11/25 08:14:18;;;;;;;21.55;14.38;;;;;;;5.87;100.00;100674.56;5001093;28;20042;-75
2022/11/25 08:16:44;;;;;;;31.85;15.05;;;;;;;6.29;100.00;100689.44;4992601;28;20148;-75
2022/11/25 08:19:13;;;;;;;22.15;16.40;;;;;;;5.76;100.00;100676.94;5008744;28;20385;-76
2022/11/25 08:21:39;;;;;;;29.45;15.05;;;;;;;5.47;100.00;100663.22;5003618;28;20112;-74
2022/11/25 08:24:05;;;;;;;30.40;16.15;;;;;;;5.28;100.00;100550.00;5004391;28;20209;-77
2022/11/25 08:26:35;;;;;;;22.67;16.17;;;;;;;5.78;100.00;100591.03;4996523;28;20081;-77
2022/11/25 08:29:04;;;;;;;21.17;14.07;;;;;;;6.30;100.00;100666.03;5009646;28;20057;-76
2022/11/25 08:31:35;;;;;;;20.77;15.32;;;;;;;6.31;100.00;100703.41;5007502;28;20120;-76
2022/11/25 08:34:02;;;;;;;26.77;17.27;;;;;;;5.11;100.00;100611.16;5008520;28;20041;-79
2022/11/25 08:36:28;;;;;;;40.20;17.20;;;;;;;6.25;100.00;100680.69;5008558;28;20398;-75
2022/11/25 08:38:58;;;;;;;23.10;15.63;;;;;;;6.54;100.00;100725.63;4996109;28;20061;-75
2022/11/25 08:41:31;;;;;;;27.10;16.83;;;;;;;4.51;100.00;100526.41;4996225;28;20046;-75
2022/11/25 08:44:12;;;;;;;32.40;16.97;;;;;;;5.57;100.00;100651.28;4974412;28;20418;-75
2022/11/25 08:46:49;;;;;;;29.75;18.17;;;;;;;6.43;100.00;100736.66;4996017;28;21026;-75
2022/11/25 08:49:16;;;;;;;25.70;16.63;;;;;;;4.88;100.00;100501.38;4973151;28;20367;-76
2022/11/25 08:51:45;;;;;;;22.38;15.90;;;;;;;6.53;100.00;100736.91;4978446;28;20046;-75
2022/11/25 08:54:33;;;;;;;29.15;18.80;;;;;;;5.94;100.00;100621.81;4990117;28;20058;-75
2022/11/25 08:57:01;;;;;;;28.42;16.40;;;;;;;5.49;100.00;100497.56;4994813;28;20080;-74
2022/11/25 08:59:27;;;;;;;26.38;14.85;;;;;;;5.36;100.00;100612.63;4977880;28;20379;-74
2022/11/25 09:01:54;;;;;;;30.98;16.70;;;;;;;5.66;100.00;100742.63;5005218;28;20068;-75
2022/11/25 09:04:19;;;;;;;24.92;16.60;;;;;;;5.90;100.00;100727.63;5016927;28;20041;-77
2022/11/25 09:06:45;;;;;;;35.90;19.45;;;;;;;4.77;100.00;100431.78;5001581;28;20037;-76
2022/11/25 09:09:10;;;;;;;28.65;19.65;;;;;;;5.71;100.00;100571.78;5002457;28;20058;-76
2022/11/25 09:11:37;;;;;;;42.50;22.17;;;;;;;6.90;100.00;100742.88;5002119;28;20119;-77
2022/11/25 09:14:03;;;;;;;37.75;22.45;;;;;;;6.77;100.00;100688.72;5003866;28;20190;-80
2022/11/25 09:16:28;;;;;;;45.08;30.40;;;;;;;6.24;100.00;100709.31;5003323;28;20063;-78
2022/11/25 09:18:54;;;;;;;41.63;20.20;;;;;;;6.51;100.00;100722.97;5007935;28;20107;-77
2022/11/25 09:21:19;;;;;;;32.20;20.40;;;;;;;6.66;100.00;100701.53;4995610;28;20058;-76
2022/11/25 09:23:45;;;;;;;37.03;18.75;;;;;;;6.43;100.00;100687.13;5010458;28;20849;-75
2022/11/25 09:26:26;;;;;;;31.63;21.15;;;;;;;6.02;100.00;100603.78;5011662;28;20045;-76
2022/11/25 09:28:52;;;;;;;22.60;18.13;;;;;;;6.26;100.00;100609.47;5006638;28;20057;-78
2022/11/25 09:31:18;;;;;;;34.95;19.77;;;;;;;6.66;100.00;100700.66;5007728;28;20581;-79
2022/11/25 09:33:43;;;;;;;30.48;20.58;;;;;;;6.71;100.00;100685.97;5006198;28;20042;-78
2022/11/25 09:36:11;;;;;;;26.23;16.40;;;;;;;7.14;100.00;100734.66;5007678;28;20052;-77
2022/11/25 09:38:37;;;;;;;39.75;20.35;;;;;;;7.02;100.00;100730.94;5006921;28;20054;-76
2022/11/25 09:46:40;;;;;;;35.92;18.13;;;;;;;7.06;100.00;100745.78;5026780;28;20100;-75
2022/11/25 09:47:32;;;;;;;25.05;17.30;;;;;;;7.02;100.00;100741.34;5005824;28;20052;-76
2022/11/25 09:50:06;;;;;;;28.52;18.55;;;;;;;6.97;100.00;100736.06;5012430;28;20079;-76
2022/11/25 09:52:54;;;;;;;26.35;19.65;;;;;;;6.86;100.00;100636.75;4992263;28;20119;-77
2022/11/25 09:55:22;;;;;;;30.90;18.20;;;;;;;7.55;100.00;100725.81;4988866;28;20033;-76
2022/11/25 09:58:12;;;;;;;31.55;22.27;;;;;;;6.86;100.00;100733.25;4973683;28;20080;-75
2022/11/25 10:00:41;;;;;;;35.85;21.42;;;;;;;6.69;100.00;100596.41;4994372;28;20093;-77
2022/11/25 10:03:21;;;;;;;29.67;19.27;;;;;;;7.65;100.00;100738.16;4992663;28;20038;-76
2022/11/25 10:06:06;;;;;;;39.63;22.08;;;;;;;7.38;100.00;100723.78;5002589;28;20054;-77
2022/11/25 10:08:40;;;;;;;29.92;19.70;;;;;;;8.10;100.00;100725.81;5002783;28;20049;-75
2022/11/25 10:11:18;;;;;;;41.60;28.85;;;;;;;7.76;100.00;100720.94;4995000;28;20054;-76
2022/11/25 10:14:07;;;;;;;32.60;23.33;;;;;;;8.32;100.00;100722.69;5011090;28;20042;-76
2022/11/25 10:16:38;;;;;;;36.42;24.10;;;;;;;7.57;100.00;100725.00;5003712;28;20045;-75
2022/11/25 10:19:22;;;;;;;44.88;32.53;;;;;;;7.93;100.00;100707.28;5001252;28;20049;-75
2022/11/25 10:21:48;;;;;;;41.20;30.02;;;;;;;7.59;100.00;100715.47;4986604;28;20049;-79
2022/11/25 10:24:16;;;;;;;32.03;21.40;;;;;;;8.24;100.00;100713.81;5006451;28;20100;-76
2022/11/25 10:26:44;;;;;;;37.95;28.95;;;;;;;8.78;100.00;100719.81;5004065;28;20088;-76
2022/11/25 10:29:13;;;;;;;39.00;28.52;;;;;;;8.91;100.00;100726.94;4970278;28;20054;-76
2022/11/25 10:31:40;;;;;;;43.53;31.17;;;;;;;7.13;100.00;100598.94;4990626;28;20046;-75
2022/11/25 10:34:38;;;;;;;36.83;30.92;;;;;;;7.70;100.00;100589.38;4990235;28;20126;-76
2022/11/25 10:37:11;;;;;;;38.80;28.83;;;;;;;8.45;100.00;100710.66;5006504;28;20068;-75
2022/11/25 10:39:36;;;;;;;48.78;30.70;;;;;;;8.63;100.00;100649.88;5033003;28;20052;-76
2022/11/25 10:42:13;;;;;;;38.22;27.23;;;;;;;9.43;100.00;100708.31;5018072;28;20050;-78
2022/11/25 10:44:40;;;;;;;45.83;30.08;;;;;;;8.89;100.00;100710.34;4987814;28;20058;-75
2022/11/25 10:47:30;;;;;;;47.63;30.25;;;;;;;8.75;100.00;100717.16;4994139;28;20108;-76
2022/11/25 10:50:13;;;;;;;38.08;26.80;;;;;;;9.13;100.00;100728.09;5006316;28;20061;-79
2022/11/25 10:52:48;;;;;;;;;;;;;;;7.65;100.00;100714.66;4993917;28;20042;-75
2022/11/25 10:55:20;;;;;;;49.08;28.48;;;;;;;8.24;100.00;100690.31;5000391;28;19995;-78
2022/11/25 10:57:45;;;;;;;43.55;27.98;;;;;;;8.38;100.00;100680.03;5001170;28;20030;-77
2022/11/25 11:00:33;;;;;;;37.72;26.17;;;;;;;8.74;100.00;100631.69;4997813;28;20060;-78
2022/11/25 11:03:14;;;;;;;45.85;29.05;;;;;;;9.26;100.00;100695.06;5002854;28;20050;-75
2022/11/25 11:05:46;;;;;;;50.75;29.45;;;;;;;8.56;100.00;100588.78;4998817;28;20069;-77
2022/11/25 11:08:11;;;;;;;40.92;30.55;;;;;;;8.44;100.00;100725.50;5009123;28;20053;-76
2022/11/25 11:10:37;;;;;;;43.13;30.60;;;;;;;7.89;100.00;100627.09;5013250;28;20048;-77
2022/11/25 11:13:16;;;;;;;37.03;26.92;;;;;;;8.68;100.00;100712.72;4997770;28;20034;-76
2022/11/25 11:15:46;;;;;;;36.45;27.55;;;;;;;7.20;100.00;100517.28;4990684;28;20061;-77
2022/11/25 11:18:18;;;;;;;44.30;28.42;;;;;;;8.62;100.00;100664.69;4990797;28;20038;-75
2022/11/25 11:20:49;;;;;;;39.05;27.90;;;;;;;8.96;100.00;100706.94;5008201;28;20080;-76
2022/11/25 11:23:15;;;;;;;38.95;27.90;;;;;;;8.76;100.00;100683.19;4991495;28;20046;-76
2022/11/25 11:26:03;;;;;;;41.97;28.13;;;;;;;8.86;100.00;100686.78;5005635;28;20069;-78